Terminal Aerodrome Forecast
Issued by NWS

Home | Current Version | Previous Version | Text Only | Print | Product List | Glossary On
Versions: 1 2 3 4 5 6 7 8 9 10 11 12 13 14 15 16 17 18
000
FTUS43 KLSX 201100 RRA
TAFSUS
TAF
KSUS 201145Z 2012/2112 09012KT P6SM VCSH BKN050 OVC100
     FM201500 07010KT P6SM -RA OVC030
     FM201800 06010KT 5SM -RA BR BKN014 OVC030
     FM202100 04008KT 5SM BR BKN015 OVC030
     FM210300 35003KT 6SM BR BKN020 OVC050=

USA.gov is the U.S. government's official web portal to all federal, state and local government web resources and services.